Main page
METAR-TAF:

METAR-TAF

Airports :

Simón Bolívar International Airport

Caracas, Venezuela

latitude: 10-36N, longitude: 066-59W, elevation: 43 m

Current weather observation

The report was made 34 minutes ago, at 19:00 UTC
Calm wind
Temperature 31°C
Humidity 52%
Pressure 1010 hPa
Visibility 10 km or more
Few clouds at a height of 1600 ft

METAR: SVMI 191900Z 00000KT 9999 FEW016 31/20 Q1010

Time: 15:34 (19:34 UTC)

Forecast

The report was made 3 hours and 34 minutes ago, at 16:00 UTC
Forecast valid from 19 at 18 UTC to 20 at 18 UTC
Wind 1 kt from the Northeast
Visibility 10 km or more
Few clouds at a height of 1600 ft
Scattered clouds at a height of 10000 ft
Becoming
from 19 at 18 UTC to 19 at 22 UTC
Wind 4 kt from the East
Few clouds at a height of 1300 ft
Scattered clouds at a height of 7000 ft

TAF: SVMI 191600Z 1918/2018 05001KT 9999 FEW016 SCT100 TX32/18Z TN24/08Z BECMG 1918/1922 09004KT FEW013 SCT070

Weather observations and forecasts of more than 4000 airports (METAR and TAF reports).

The available stations are represented by yellow and red dots on the map.

Hover mouse over dot to see the name of the station.

Then click to see weather observations and forecasts.

To change the map : click on the green buttons with a black cross to zoom in, on the green button with a dash to zoom out, or on the green arrows for adjacent maps.


METAR-TAF: